Napoli Jet — IQTJ — position and weather

sailwx.info

Track history (hours):
 
Tides and Currents Weather Stations Pressure Air Temp Water Temp Dewpoint Dewpoint Depression Visibility Wind Speed Wind Dir Waves Ship Positions

Napoli Jet

Last reported at 2014-Aug-21 14:34 UTC. Time now 2014-Aug-23 19:47 UTC.
Position N 40°34' E 014°15'.

Length 41 m; draft 1.3 m.

Type: Ship. MMSI: 247051400.

Date/timePositionNaut miles runAvg speedWind from/ knotsBaromVisibWave heightAir tempDewpointWater temp
2014-Aug-21 14:34N 40°34' E 014°15'0 0.3
2014-Aug-21 13:33N 40°33' E 014°14'0 0.0
2014-Aug-21 11:33N 40°33' E 014°14'2 0.1
2014-Aug-20 11:33N 40°35' E 014°16'11 9.4
2014-Aug-20 10:25N 40°46' E 014°17'4 0.2
2014-Aug-19 16:33N 40°50' E 014°16'1 0.7
2014-Aug-19 15:34N 40°50' E 014°15'16 7.6
2014-Aug-19 13:26N 40°34' E 014°14'5 4.4
2014-Aug-19 12:12N 40°38' E 014°20'6 3.8
2014-Aug-19 10:33N 40°34' E 014°13'14 6.1
2014-Aug-19 08:14N 40°48' E 014°17'3 0.2
2014-Aug-18 16:03N 40°50' E 014°15'713.5
2014-Aug-18 15:34N 40°44' E 014°17'6 1.2
2014-Aug-18 10:22N 40°50' E 014°16'17 0.3
2014-Aug-16 10:21N 40°33' E 014°14'0 0.0
2014-Aug-16 09:33N 40°33' E 014°14'0 0.0
2014-Aug-15 10:20N 40°33' E 014°14'0 0.0
2014-Aug-14 12:16N 40°33' E 014°14'810.8
2014-Aug-14 11:33N 40°38' E 014°23'0 0.0
2014-Aug-14 10:32N 40°38' E 014°23'4 4.0
2014-Aug-14 09:33N 40°36' E 014°18'8 0.4
2014-Aug-13 15:34N 40°44' E 014°17'11 2.7
2014-Aug-13 11:28N 40°33' E 014°14'1716.0
2014-Aug-13 10:25N 40°50' E 014°15'1713.0
2014-Aug-13 09:08N 40°33' E 014°14'0 0.1
2014-Aug-13 08:22N 40°33' E 014°14'1719.9
2014-Aug-13 07:31N 40°50' E 014°15'1 0.1
2014-Aug-12 16:32N 40°50' E 014°17'11 8.9
2014-Aug-12 15:19N 40°39' E 014°16'4 4.2
2014-Aug-12 14:19N 40°34' E 014°15'1613.2
2014-Aug-12 13:08N 40°50' E 014°15'0 0.0
2014-Aug-12 12:33N 40°50' E 014°15'1717.0
2014-Aug-12 11:33N 40°33' E 014°14'0 0.0
2014-Aug-12 10:33N 40°33' E 014°14'1 0.5
2014-Aug-12 09:31N 40°34' E 014°15'1614.7
2014-Aug-12 08:24N 40°50' E 014°16'1 0.1
2014-Aug-11 16:34N 40°49' E 014°17'12 9.4
2014-Aug-11 15:17N 40°37' E 014°16'  
Track history (hours):
 
Tides and Currents Weather Stations Pressure Air Temp Water Temp Dewpoint Dewpoint Depression Visibility Wind Speed Wind Dir Waves Ship Positions

Napoli Jet

Last reported at 2014-Aug-21 14:34 UTC. Time now 2014-Aug-23 19:47 UTC.
Position N 40°34' E 014°15'.

Length 41 m; draft 1.3 m.

Type: Ship. MMSI: 247051400.

Date/timePositionNaut miles runAvg speedWind from/ knotsBaromVisibWave heightAir tempDewpointWater temp
2014-Aug-21 14:34N 40°34' E 014°15'0 0.3
2014-Aug-21 13:33N 40°33' E 014°14'0 0.0
2014-Aug-21 11:33N 40°33' E 014°14'2 0.1
2014-Aug-20 11:33N 40°35' E 014°16'11 9.4
2014-Aug-20 10:25N 40°46' E 014°17'4 0.2
2014-Aug-19 16:33N 40°50' E 014°16'1 0.7
2014-Aug-19 15:34N 40°50' E 014°15'16 7.6
2014-Aug-19 13:26N 40°34' E 014°14'5 4.4
2014-Aug-19 12:12N 40°38' E 014°20'6 3.8
2014-Aug-19 10:33N 40°34' E 014°13'14 6.1
2014-Aug-19 08:14N 40°48' E 014°17'3 0.2
2014-Aug-18 16:03N 40°50' E 014°15'713.5
2014-Aug-18 15:34N 40°44' E 014°17'6 1.2
2014-Aug-18 10:22N 40°50' E 014°16'17 0.3
2014-Aug-16 10:21N 40°33' E 014°14'0 0.0
2014-Aug-16 09:33N 40°33' E 014°14'0 0.0
2014-Aug-15 10:20N 40°33' E 014°14'0 0.0
2014-Aug-14 12:16N 40°33' E 014°14'810.8
2014-Aug-14 11:33N 40°38' E 014°23'0 0.0
2014-Aug-14 10:32N 40°38' E 014°23'4 4.0
2014-Aug-14 09:33N 40°36' E 014°18'8 0.4
2014-Aug-13 15:34N 40°44' E 014°17'11 2.7
2014-Aug-13 11:28N 40°33' E 014°14'1716.0
2014-Aug-13 10:25N 40°50' E 014°15'1713.0
2014-Aug-13 09:08N 40°33' E 014°14'0 0.1
2014-Aug-13 08:22N 40°33' E 014°14'1719.9
2014-Aug-13 07:31N 40°50' E 014°15'1 0.1
2014-Aug-12 16:32N 40°50' E 014°17'11 8.9
2014-Aug-12 15:19N 40°39' E 014°16'4 4.2
2014-Aug-12 14:19N 40°34' E 014°15'1613.2
2014-Aug-12 13:08N 40°50' E 014°15'0 0.0
2014-Aug-12 12:33N 40°50' E 014°15'1717.0
2014-Aug-12 11:33N 40°33' E 014°14'0 0.0
2014-Aug-12 10:33N 40°33' E 014°14'1 0.5
2014-Aug-12 09:31N 40°34' E 014°15'1614.7
2014-Aug-12 08:24N 40°50' E 014°16'1 0.1
2014-Aug-11 16:34N 40°49' E 014°17'12 9.4
2014-Aug-11 15:17N 40°37' E 014°16'  

Dump ship's entire track history